sensor_id;sensor_type;location;lat;lon;timestamp;P1;durP1;ratioP1;P2;durP2;ratioP2
52180;SDS011;38158;53.338;6.514;2023-08-21T00:01:01;7.45;;;2.53;;
52180;SDS011;38158;53.338;6.514;2023-08-21T00:03:26;6.72;;;2.75;;
52180;SDS011;38158;53.338;6.514;2023-08-21T00:05:52;7.80;;;2.35;;
52180;SDS011;38158;53.338;6.514;2023-08-21T00:08:18;5.70;;;2.40;;
52180;SDS011;38158;53.338;6.514;2023-08-21T00:10:43;4.60;;;2.08;;
52180;SDS011;38158;53.338;6.514;2023-08-21T00:13:09;9.85;;;2.90;;
52180;SDS011;38158;53.338;6.514;2023-08-21T00:15:37;8.25;;;2.45;;
52180;SDS011;38158;53.338;6.514;2023-08-21T00:18:03;4.28;;;2.10;;
52180;SDS011;38158;53.338;6.514;2023-08-21T00:20:30;4.87;;;2.10;;
52180;SDS011;38158;53.338;6.514;2023-08-21T00:22:56;6.55;;;2.40;;
52180;SDS011;38158;53.338;6.514;2023-08-21T00:25:21;7.05;;;2.58;;
52180;SDS011;38158;53.338;6.514;2023-08-21T00:27:47;6.97;;;2.60;;
52180;SDS011;38158;53.338;6.514;2023-08-21T00:30:13;5.32;;;2.08;;
52180;SDS011;38158;53.338;6.514;2023-08-21T00:32:42;7.22;;;2.35;;
52180;SDS011;38158;53.338;6.514;2023-08-21T00:35:08;4.82;;;2.35;;
52180;SDS011;38158;53.338;6.514;2023-08-21T00:37:33;6.75;;;2.53;;
52180;SDS011;38158;53.338;6.514;2023-08-21T00:39:59;6.03;;;2.45;;
52180;SDS011;38158;53.338;6.514;2023-08-21T00:42:25;7.07;;;2.40;;
52180;SDS011;38158;53.338;6.514;2023-08-21T00:44:51;7.75;;;2.95;;
52180;SDS011;38158;53.338;6.514;2023-08-21T00:47:16;8.70;;;2.70;;
52180;SDS011;38158;53.338;6.514;2023-08-21T00:49:44;6.68;;;3.08;;
52180;SDS011;38158;53.338;6.514;2023-08-21T00:52:10;8.40;;;3.10;;
52180;SDS011;38158;53.338;6.514;2023-08-21T00:57:03;8.88;;;2.95;;
52180;SDS011;38158;53.338;6.514;2023-08-21T00:59:29;7.53;;;3.13;;
52180;SDS011;38158;53.338;6.514;2023-08-21T01:01:55;7.18;;;2.88;;
52180;SDS011;38158;53.338;6.514;2023-08-21T01:04:21;8.00;;;3.35;;
52180;SDS011;38158;53.338;6.514;2023-08-21T01:06:48;5.53;;;2.80;;
52180;SDS011;38158;53.338;6.514;2023-08-21T01:09:17;8.73;;;3.15;;
52180;SDS011;38158;53.338;6.514;2023-08-21T01:14:36;5.65;;;2.95;;
52180;SDS011;38158;53.338;6.514;2023-08-21T01:17:13;6.40;;;2.88;;
52180;SDS011;38158;53.338;6.514;2023-08-21T01:19:42;5.88;;;3.17;;
52180;SDS011;38158;53.338;6.514;2023-08-21T01:22:11;6.38;;;2.88;;
52180;SDS011;38158;53.338;6.514;2023-08-21T01:24:37;8.05;;;3.25;;
52180;SDS011;38158;53.338;6.514;2023-08-21T01:27:02;5.75;;;2.55;;
52180;SDS011;38158;53.338;6.514;2023-08-21T01:29:28;8.00;;;2.80;;
52180;SDS011;38158;53.338;6.514;2023-08-21T01:32:43;6.38;;;3.10;;
52180;SDS011;38158;53.338;6.514;2023-08-21T01:34:50;6.68;;;2.88;;
52180;SDS011;38158;53.338;6.514;2023-08-21T01:37:19;9.18;;;3.63;;
52180;SDS011;38158;53.338;6.514;2023-08-21T01:39:45;9.30;;;3.15;;
52180;SDS011;38158;53.338;6.514;2023-08-21T01:42:10;5.13;;;2.78;;
52180;SDS011;38158;53.338;6.514;2023-08-21T01:44:36;6.25;;;3.40;;
52180;SDS011;38158;53.338;6.514;2023-08-21T01:47:02;6.57;;;3.25;;
52180;SDS011;38158;53.338;6.514;2023-08-21T01:49:27;7.25;;;3.10;;
52180;SDS011;38158;53.338;6.514;2023-08-21T01:51:53;11.52;;;3.78;;
52180;SDS011;38158;53.338;6.514;2023-08-21T01:54:19;9.13;;;3.75;;
52180;SDS011;38158;53.338;6.514;2023-08-21T01:56:44;5.45;;;3.05;;
52180;SDS011;38158;53.338;6.514;2023-08-21T01:59:10;6.15;;;3.22;;
52180;SDS011;38158;53.338;6.514;2023-08-21T02:01:36;7.38;;;3.80;;
52180;SDS011;38158;53.338;6.514;2023-08-21T02:04:01;8.88;;;3.33;;
52180;SDS011;38158;53.338;6.514;2023-08-21T02:06:27;7.45;;;3.83;;
52180;SDS011;38158;53.338;6.514;2023-08-21T02:08:52;6.18;;;3.67;;
52180;SDS011;38158;53.338;6.514;2023-08-21T02:11:18;8.82;;;4.00;;
52180;SDS011;38158;53.338;6.514;2023-08-21T02:13:44;8.50;;;3.78;;
52180;SDS011;38158;53.338;6.514;2023-08-21T02:16:09;9.40;;;3.67;;
52180;SDS011;38158;53.338;6.514;2023-08-21T02:18:35;8.25;;;4.10;;
52180;SDS011;38158;53.338;6.514;2023-08-21T02:21:01;6.85;;;3.83;;
52180;SDS011;38158;53.338;6.514;2023-08-21T02:23:27;7.13;;;3.95;;
52180;SDS011;38158;53.338;6.514;2023-08-21T02:25:53;7.70;;;4.20;;
52180;SDS011;38158;53.338;6.514;2023-08-21T02:28:19;8.88;;;4.55;;
52180;SDS011;38158;53.338;6.514;2023-08-21T02:30:45;11.68;;;4.38;;
52180;SDS011;38158;53.338;6.514;2023-08-21T02:33:11;9.40;;;3.78;;
52180;SDS011;38158;53.338;6.514;2023-08-21T02:35:36;8.00;;;3.50;;
52180;SDS011;38158;53.338;6.514;2023-08-21T02:38:02;7.07;;;3.78;;
52180;SDS011;38158;53.338;6.514;2023-08-21T02:40:28;9.88;;;4.13;;
52180;SDS011;38158;53.338;6.514;2023-08-21T02:42:54;4.57;;;3.15;;
52180;SDS011;38158;53.338;6.514;2023-08-21T02:45:19;6.72;;;3.83;;
52180;SDS011;38158;53.338;6.514;2023-08-21T02:47:45;7.35;;;3.80;;
52180;SDS011;38158;53.338;6.514;2023-08-21T02:50:11;7.65;;;3.42;;
52180;SDS011;38158;53.338;6.514;2023-08-21T02:52:37;6.60;;;3.63;;
52180;SDS011;38158;53.338;6.514;2023-08-21T02:55:03;7.40;;;3.03;;
52180;SDS011;38158;53.338;6.514;2023-08-21T02:57:29;7.78;;;3.10;;
52180;SDS011;38158;53.338;6.514;2023-08-21T02:59:55;6.47;;;3.15;;
52180;SDS011;38158;53.338;6.514;2023-08-21T03:02:21;7.15;;;3.17;;
52180;SDS011;38158;53.338;6.514;2023-08-21T03:04:48;5.68;;;3.00;;
52180;SDS011;38158;53.338;6.514;2023-08-21T03:07:14;6.70;;;3.20;;
52180;SDS011;38158;53.338;6.514;2023-08-21T03:09:40;5.93;;;3.22;;
52180;SDS011;38158;53.338;6.514;2023-08-21T03:12:06;5.90;;;2.83;;
52180;SDS011;38158;53.338;6.514;2023-08-21T03:14:33;3.75;;;2.22;;
52180;SDS011;38158;53.338;6.514;2023-08-21T03:16:58;4.93;;;2.30;;
52180;SDS011;38158;53.338;6.514;2023-08-21T03:19:24;6.50;;;2.33;;
52180;SDS011;38158;53.338;6.514;2023-08-21T03:21:50;5.43;;;2.38;;
52180;SDS011;38158;53.338;6.514;2023-08-21T03:24:16;5.30;;;2.75;;
52180;SDS011;38158;53.338;6.514;2023-08-21T03:26:42;4.57;;;2.38;;
52180;SDS011;38158;53.338;6.514;2023-08-21T03:29:08;6.25;;;3.15;;
52180;SDS011;38158;53.338;6.514;2023-08-21T03:31:33;6.95;;;3.05;;
52180;SDS011;38158;53.338;6.514;2023-08-21T03:33:59;6.10;;;3.20;;
52180;SDS011;38158;53.338;6.514;2023-08-21T03:36:25;12.52;;;3.38;;
52180;SDS011;38158;53.338;6.514;2023-08-21T03:38:57;4.97;;;2.55;;
52180;SDS011;38158;53.338;6.514;2023-08-21T03:41:23;6.22;;;2.92;;
52180;SDS011;38158;53.338;6.514;2023-08-21T03:43:49;4.88;;;2.70;;
52180;SDS011;38158;53.338;6.514;2023-08-21T03:46:14;5.30;;;2.67;;
52180;SDS011;38158;53.338;6.514;2023-08-21T03:48:40;5.40;;;2.88;;
52180;SDS011;38158;53.338;6.514;2023-08-21T03:51:06;5.05;;;2.92;;
52180;SDS011;38158;53.338;6.514;2023-08-21T03:53:31;5.07;;;2.65;;
52180;SDS011;38158;53.338;6.514;2023-08-21T03:55:57;5.20;;;3.15;;
52180;SDS011;38158;53.338;6.514;2023-08-21T03:58:23;5.97;;;3.13;;
52180;SDS011;38158;53.338;6.514;2023-08-21T04:00:50;5.50;;;3.03;;
52180;SDS011;38158;53.338;6.514;2023-08-21T04:03:16;4.60;;;2.90;;
52180;SDS011;38158;53.338;6.514;2023-08-21T04:05:42;7.22;;;3.30;;
52180;SDS011;38158;53.338;6.514;2023-08-21T04:08:07;4.05;;;2.38;;
52180;SDS011;38158;53.338;6.514;2023-08-21T04:10:33;5.80;;;3.00;;
52180;SDS011;38158;53.338;6.514;2023-08-21T04:12:59;5.25;;;2.92;;
52180;SDS011;38158;53.338;6.514;2023-08-21T04:15:25;6.40;;;3.35;;
52180;SDS011;38158;53.338;6.514;2023-08-21T04:17:51;5.53;;;3.25;;
52180;SDS011;38158;53.338;6.514;2023-08-21T04:20:17;5.35;;;3.42;;
52180;SDS011;38158;53.338;6.514;2023-08-21T04:22:44;6.60;;;3.25;;
52180;SDS011;38158;53.338;6.514;2023-08-21T04:25:10;6.82;;;3.13;;
52180;SDS011;38158;53.338;6.514;2023-08-21T04:27:36;4.75;;;2.65;;
52180;SDS011;38158;53.338;6.514;2023-08-21T04:30:02;6.30;;;2.80;;
52180;SDS011;38158;53.338;6.514;2023-08-21T04:32:29;8.50;;;3.22;;
52180;SDS011;38158;53.338;6.514;2023-08-21T04:34:55;5.88;;;3.05;;
52180;SDS011;38158;53.338;6.514;2023-08-21T04:37:21;6.85;;;3.40;;
52180;SDS011;38158;53.338;6.514;2023-08-21T04:39:50;6.85;;;2.75;;
52180;SDS011;38158;53.338;6.514;2023-08-21T04:42:16;6.93;;;3.03;;
52180;SDS011;38158;53.338;6.514;2023-08-21T04:44:42;6.22;;;2.83;;
52180;SDS011;38158;53.338;6.514;2023-08-21T04:47:24;9.23;;;3.13;;
52180;SDS011;38158;53.338;6.514;2023-08-21T04:49:54;5.35;;;2.85;;
52180;SDS011;38158;53.338;6.514;2023-08-21T04:52:20;4.82;;;3.05;;
52180;SDS011;38158;53.338;6.514;2023-08-21T04:54:47;6.60;;;3.45;;
52180;SDS011;38158;53.338;6.514;2023-08-21T04:57:14;8.23;;;3.70;;
52180;SDS011;38158;53.338;6.514;2023-08-21T04:59:40;5.85;;;2.90;;
52180;SDS011;38158;53.338;6.514;2023-08-21T05:02:05;7.88;;;3.30;;
52180;SDS011;38158;53.338;6.514;2023-08-21T05:04:31;6.43;;;2.75;;
52180;SDS011;38158;53.338;6.514;2023-08-21T05:06:58;6.80;;;3.10;;
52180;SDS011;38158;53.338;6.514;2023-08-21T05:09:23;5.05;;;2.65;;
52180;SDS011;38158;53.338;6.514;2023-08-21T05:11:49;4.68;;;2.58;;
52180;SDS011;38158;53.338;6.514;2023-08-21T05:14:14;5.45;;;2.42;;
52180;SDS011;38158;53.338;6.514;2023-08-21T05:16:40;4.28;;;2.42;;
52180;SDS011;38158;53.338;6.514;2023-08-21T05:19:06;5.53;;;2.67;;
52180;SDS011;38158;53.338;6.514;2023-08-21T05:21:32;4.77;;;2.93;;
52180;SDS011;38158;53.338;6.514;2023-08-21T05:23:58;5.60;;;2.60;;
52180;SDS011;38158;53.338;6.514;2023-08-21T05:26:23;5.90;;;2.92;;
52180;SDS011;38158;53.338;6.514;2023-08-21T05:28:49;6.30;;;2.53;;
52180;SDS011;38158;53.338;6.514;2023-08-21T05:31:15;6.15;;;2.85;;
52180;SDS011;38158;53.338;6.514;2023-08-21T05:33:40;4.47;;;2.40;;
52180;SDS011;38158;53.338;6.514;2023-08-21T05:36:06;4.80;;;2.60;;
52180;SDS011;38158;53.338;6.514;2023-08-21T05:38:32;4.95;;;2.47;;
52180;SDS011;38158;53.338;6.514;2023-08-21T05:40:57;8.13;;;2.92;;
52180;SDS011;38158;53.338;6.514;2023-08-21T05:43:26;4.53;;;2.38;;
52180;SDS011;38158;53.338;6.514;2023-08-21T05:45:51;6.45;;;2.10;;
52180;SDS011;38158;53.338;6.514;2023-08-21T05:48:17;6.05;;;2.65;;
52180;SDS011;38158;53.338;6.514;2023-08-21T05:50:42;6.20;;;2.60;;
52180;SDS011;38158;53.338;6.514;2023-08-21T05:53:08;5.15;;;2.30;;
52180;SDS011;38158;53.338;6.514;2023-08-21T05:55:36;5.53;;;2.50;;
52180;SDS011;38158;53.338;6.514;2023-08-21T05:58:02;4.63;;;2.42;;
52180;SDS011;38158;53.338;6.514;2023-08-21T06:00:28;7.18;;;2.70;;
52180;SDS011;38158;53.338;6.514;2023-08-21T06:02:54;6.53;;;2.58;;
52180;SDS011;38158;53.338;6.514;2023-08-21T06:05:19;5.82;;;2.60;;
52180;SDS011;38158;53.338;6.514;2023-08-21T06:07:45;6.47;;;2.10;;
52180;SDS011;38158;53.338;6.514;2023-08-21T06:10:11;7.50;;;2.65;;
52180;SDS011;38158;53.338;6.514;2023-08-21T06:12:40;4.90;;;2.70;;
52180;SDS011;38158;53.338;6.514;2023-08-21T06:15:07;4.63;;;2.35;;
52180;SDS011;38158;53.338;6.514;2023-08-21T06:17:37;8.15;;;2.65;;
52180;SDS011;38158;53.338;6.514;2023-08-21T06:20:03;7.37;;;2.50;;
52180;SDS011;38158;53.338;6.514;2023-08-21T06:22:39;6.43;;;2.88;;
52180;SDS011;38158;53.338;6.514;2023-08-21T06:25:04;5.22;;;2.00;;
52180;SDS011;38158;53.338;6.514;2023-08-21T06:27:30;5.20;;;2.53;;
52180;SDS011;38158;53.338;6.514;2023-08-21T06:29:56;6.13;;;2.47;;
52180;SDS011;38158;53.338;6.514;2023-08-21T06:32:22;7.82;;;2.55;;
52180;SDS011;38158;53.338;6.514;2023-08-21T06:34:47;7.43;;;2.05;;
52180;SDS011;38158;53.338;6.514;2023-08-21T06:37:13;6.45;;;2.33;;
52180;SDS011;38158;53.338;6.514;2023-08-21T06:39:39;5.03;;;2.30;;
52180;SDS011;38158;53.338;6.514;2023-08-21T06:42:05;6.32;;;2.10;;
52180;SDS011;38158;53.338;6.514;2023-08-21T06:44:30;6.20;;;2.60;;
52180;SDS011;38158;53.338;6.514;2023-08-21T06:46:56;5.00;;;2.25;;
52180;SDS011;38158;53.338;6.514;2023-08-21T06:49:22;8.30;;;2.28;;
52180;SDS011;38158;53.338;6.514;2023-08-21T06:51:48;8.65;;;2.60;;
52180;SDS011;38158;53.338;6.514;2023-08-21T06:54:14;4.63;;;2.30;;
52180;SDS011;38158;53.338;6.514;2023-08-21T06:56:40;5.82;;;2.00;;
52180;SDS011;38158;53.338;6.514;2023-08-21T06:59:06;6.15;;;2.42;;
52180;SDS011;38158;53.338;6.514;2023-08-21T07:01:31;8.57;;;2.55;;
52180;SDS011;38158;53.338;6.514;2023-08-21T07:03:57;5.78;;;1.98;;
52180;SDS011;38158;53.338;6.514;2023-08-21T07:06:23;4.00;;;2.15;;
52180;SDS011;38158;53.338;6.514;2023-08-21T07:08:49;7.20;;;2.17;;
52180;SDS011;38158;53.338;6.514;2023-08-21T07:11:15;4.72;;;1.98;;
52180;SDS011;38158;53.338;6.514;2023-08-21T07:16:07;4.43;;;1.65;;
52180;SDS011;38158;53.338;6.514;2023-08-21T07:18:34;6.03;;;1.95;;
52180;SDS011;38158;53.338;6.514;2023-08-21T07:21:02;7.78;;;2.63;;
52180;SDS011;38158;53.338;6.514;2023-08-21T07:23:29;4.97;;;1.60;;
52180;SDS011;38158;53.338;6.514;2023-08-21T07:25:56;4.05;;;1.90;;
52180;SDS011;38158;53.338;6.514;2023-08-21T07:28:22;3.75;;;1.65;;
52180;SDS011;38158;53.338;6.514;2023-08-21T07:30:48;4.18;;;1.65;;
52180;SDS011;38158;53.338;6.514;2023-08-21T07:33:19;4.88;;;1.73;;
52180;SDS011;38158;53.338;6.514;2023-08-21T07:35:44;5.70;;;1.50;;
52180;SDS011;38158;53.338;6.514;2023-08-21T07:38:10;4.45;;;1.45;;
52180;SDS011;38158;53.338;6.514;2023-08-21T07:40:35;5.55;;;1.88;;
52180;SDS011;38158;53.338;6.514;2023-08-21T07:43:01;4.10;;;1.67;;
52180;SDS011;38158;53.338;6.514;2023-08-21T07:45:28;4.43;;;1.35;;
52180;SDS011;38158;53.338;6.514;2023-08-21T07:47:54;4.65;;;1.10;;
52180;SDS011;38158;53.338;6.514;2023-08-21T07:50:19;6.22;;;1.10;;
52180;SDS011;38158;53.338;6.514;2023-08-21T07:52:45;2.80;;;1.20;;
52180;SDS011;38158;53.338;6.514;2023-08-21T07:55:12;4.35;;;1.20;;
52180;SDS011;38158;53.338;6.514;2023-08-21T07:57:37;3.60;;;1.08;;
52180;SDS011;38158;53.338;6.514;2023-08-21T08:00:03;4.22;;;0.88;;
52180;SDS011;38158;53.338;6.514;2023-08-21T08:02:33;3.17;;;1.02;;
52180;SDS011;38158;53.338;6.514;2023-08-21T08:04:59;4.68;;;1.50;;
52180;SDS011;38158;53.338;6.514;2023-08-21T08:07:25;6.72;;;1.23;;
52180;SDS011;38158;53.338;6.514;2023-08-21T08:09:51;3.10;;;1.08;;
52180;SDS011;38158;53.338;6.514;2023-08-21T08:12:16;4.82;;;1.27;;
52180;SDS011;38158;53.338;6.514;2023-08-21T08:14:42;6.03;;;1.23;;
52180;SDS011;38158;53.338;6.514;2023-08-21T08:17:08;3.55;;;1.00;;
52180;SDS011;38158;53.338;6.514;2023-08-21T08:19:34;3.67;;;0.95;;
52180;SDS011;38158;53.338;6.514;2023-08-21T08:21:59;7.38;;;0.88;;
52180;SDS011;38158;53.338;6.514;2023-08-21T08:24:25;4.28;;;1.02;;
52180;SDS011;38158;53.338;6.514;2023-08-21T08:26:51;2.70;;;1.05;;
52180;SDS011;38158;53.338;6.514;2023-08-21T08:29:16;4.80;;;0.70;;
52180;SDS011;38158;53.338;6.514;2023-08-21T08:31:42;6.13;;;0.90;;
52180;SDS011;38158;53.338;6.514;2023-08-21T08:34:08;4.25;;;1.30;;
52180;SDS011;38158;53.338;6.514;2023-08-21T08:36:34;2.53;;;0.70;;
52180;SDS011;38158;53.338;6.514;2023-08-21T08:39:00;4.85;;;0.90;;
52180;SDS011;38158;53.338;6.514;2023-08-21T08:41:29;5.43;;;1.08;;
52180;SDS011;38158;53.338;6.514;2023-08-21T08:43:58;3.35;;;1.00;;
52180;SDS011;38158;53.338;6.514;2023-08-21T08:46:26;3.58;;;1.10;;
52180;SDS011;38158;53.338;6.514;2023-08-21T08:48:54;5.53;;;1.00;;
52180;SDS011;38158;53.338;6.514;2023-08-21T08:51:21;2.70;;;1.02;;
52180;SDS011;38158;53.338;6.514;2023-08-21T08:53:50;5.88;;;1.10;;
52180;SDS011;38158;53.338;6.514;2023-08-21T08:56:15;3.65;;;0.88;;
52180;SDS011;38158;53.338;6.514;2023-08-21T08:58:44;2.00;;;0.90;;
52180;SDS011;38158;53.338;6.514;2023-08-21T09:01:11;4.10;;;0.82;;
52180;SDS011;38158;53.338;6.514;2023-08-21T09:03:37;4.43;;;1.08;;
52180;SDS011;38158;53.338;6.514;2023-08-21T09:06:03;3.92;;;0.85;;
52180;SDS011;38158;53.338;6.514;2023-08-21T09:08:30;4.38;;;0.82;;
52180;SDS011;38158;53.338;6.514;2023-08-21T09:13:26;3.25;;;0.73;;
52180;SDS011;38158;53.338;6.514;2023-08-21T09:15:55;3.15;;;0.73;;
52180;SDS011;38158;53.338;6.514;2023-08-21T09:18:21;3.50;;;0.70;;
52180;SDS011;38158;53.338;6.514;2023-08-21T09:20:46;3.40;;;0.85;;
52180;SDS011;38158;53.338;6.514;2023-08-21T09:23:16;4.07;;;1.00;;
52180;SDS011;38158;53.338;6.514;2023-08-21T09:25:43;4.00;;;0.90;;
52180;SDS011;38158;53.338;6.514;2023-08-21T09:28:13;3.03;;;0.93;;
52180;SDS011;38158;53.338;6.514;2023-08-21T09:33:19;2.85;;;0.70;;
52180;SDS011;38158;53.338;6.514;2023-08-21T09:35:46;7.72;;;1.13;;
52180;SDS011;38158;53.338;6.514;2023-08-21T09:38:12;3.25;;;0.93;;
52180;SDS011;38158;53.338;6.514;2023-08-21T09:43:06;3.78;;;0.73;;
52180;SDS011;38158;53.338;6.514;2023-08-21T09:45:34;1.58;;;0.60;;
52180;SDS011;38158;53.338;6.514;2023-08-21T09:47:59;2.85;;;0.88;;
52180;SDS011;38158;53.338;6.514;2023-08-21T09:50:26;4.78;;;0.70;;
52180;SDS011;38158;53.338;6.514;2023-08-21T09:52:54;2.60;;;0.55;;
52180;SDS011;38158;53.338;6.514;2023-08-21T09:55:23;4.75;;;0.82;;
52180;SDS011;38158;53.338;6.514;2023-08-21T09:57:51;2.28;;;0.75;;
52180;SDS011;38158;53.338;6.514;2023-08-21T10:00:24;3.70;;;1.00;;
52180;SDS011;38158;53.338;6.514;2023-08-21T10:03:01;4.03;;;0.95;;
52180;SDS011;38158;53.338;6.514;2023-08-21T10:05:29;3.72;;;0.95;;
52180;SDS011;38158;53.338;6.514;2023-08-21T10:08:00;4.35;;;0.82;;
52180;SDS011;38158;53.338;6.514;2023-08-21T10:10:31;2.22;;;0.63;;
52180;SDS011;38158;53.338;6.514;2023-08-21T10:12:58;4.35;;;0.80;;
52180;SDS011;38158;53.338;6.514;2023-08-21T10:15:25;2.65;;;0.82;;
52180;SDS011;38158;53.338;6.514;2023-08-21T10:17:52;7.75;;;0.90;;
52180;SDS011;38158;53.338;6.514;2023-08-21T10:20:22;3.07;;;0.90;;
52180;SDS011;38158;53.338;6.514;2023-08-21T10:22:49;2.38;;;0.80;;
52180;SDS011;38158;53.338;6.514;2023-08-21T10:25:19;3.25;;;0.90;;
52180;SDS011;38158;53.338;6.514;2023-08-21T10:27:57;3.75;;;0.95;;
52180;SDS011;38158;53.338;6.514;2023-08-21T10:30:28;3.22;;;0.70;;
52180;SDS011;38158;53.338;6.514;2023-08-21T10:32:54;3.75;;;0.98;;
52180;SDS011;38158;53.338;6.514;2023-08-21T10:35:23;3.72;;;1.10;;
52180;SDS011;38158;53.338;6.514;2023-08-21T10:41:14;2.97;;;0.90;;
52180;SDS011;38158;53.338;6.514;2023-08-21T10:46:11;2.33;;;0.77;;
52180;SDS011;38158;53.338;6.514;2023-08-21T10:48:37;5.50;;;0.80;;
52180;SDS011;38158;53.338;6.514;2023-08-21T10:51:07;4.30;;;0.75;;
52180;SDS011;38158;53.338;6.514;2023-08-21T10:53:34;3.75;;;0.93;;
52180;SDS011;38158;53.338;6.514;2023-08-21T10:56:05;2.03;;;0.80;;
52180;SDS011;38158;53.338;6.514;2023-08-21T10:58:38;3.05;;;0.93;;
52180;SDS011;38158;53.338;6.514;2023-08-21T11:01:07;2.35;;;0.70;;
52180;SDS011;38158;53.338;6.514;2023-08-21T11:03:33;5.30;;;1.10;;
52180;SDS011;38158;53.338;6.514;2023-08-21T11:08:31;3.20;;;1.00;;
52180;SDS011;38158;53.338;6.514;2023-08-21T11:10:58;4.35;;;1.27;;
52180;SDS011;38158;53.338;6.514;2023-08-21T11:13:25;3.63;;;1.10;;
52180;SDS011;38158;53.338;6.514;2023-08-21T11:16:00;2.67;;;0.80;;
52180;SDS011;38158;53.338;6.514;2023-08-21T11:18:31;4.50;;;1.20;;
52180;SDS011;38158;53.338;6.514;2023-08-21T11:23:33;3.08;;;1.00;;
52180;SDS011;38158;53.338;6.514;2023-08-21T11:26:00;4.13;;;0.93;;
52180;SDS011;38158;53.338;6.514;2023-08-21T11:28:27;7.13;;;1.63;;
52180;SDS011;38158;53.338;6.514;2023-08-21T11:30:58;2.33;;;0.80;;
52180;SDS011;38158;53.338;6.514;2023-08-21T11:33:25;3.67;;;0.70;;
52180;SDS011;38158;53.338;6.514;2023-08-21T11:35:51;5.18;;;0.93;;
52180;SDS011;38158;53.338;6.514;2023-08-21T11:38:22;2.03;;;0.57;;
52180;SDS011;38158;53.338;6.514;2023-08-21T11:43:18;5.30;;;1.23;;
52180;SDS011;38158;53.338;6.514;2023-08-21T11:45:45;3.72;;;1.10;;
52180;SDS011;38158;53.338;6.514;2023-08-21T11:48:11;2.13;;;0.68;;
52180;SDS011;38158;53.338;6.514;2023-08-21T11:50:37;4.90;;;1.10;;
52180;SDS011;38158;53.338;6.514;2023-08-21T11:53:04;4.80;;;1.33;;
52180;SDS011;38158;53.338;6.514;2023-08-21T11:55:30;2.83;;;1.10;;
52180;SDS011;38158;53.338;6.514;2023-08-21T11:57:56;7.28;;;1.20;;
52180;SDS011;38158;53.338;6.514;2023-08-21T12:00:26;3.97;;;1.10;;
52180;SDS011;38158;53.338;6.514;2023-08-21T12:03:02;3.00;;;0.85;;
52180;SDS011;38158;53.338;6.514;2023-08-21T12:05:31;3.78;;;0.60;;
52180;SDS011;38158;53.338;6.514;2023-08-21T12:10:24;5.13;;;0.70;;
52180;SDS011;38158;53.338;6.514;2023-08-21T12:12:51;2.38;;;0.85;;
52180;SDS011;38158;53.338;6.514;2023-08-21T12:15:17;4.73;;;1.00;;
52180;SDS011;38158;53.338;6.514;2023-08-21T12:17:43;4.47;;;1.00;;
52180;SDS011;38158;53.338;6.514;2023-08-21T12:20:09;5.28;;;0.75;;
52180;SDS011;38158;53.338;6.514;2023-08-21T12:22:37;5.25;;;0.80;;
52180;SDS011;38158;53.338;6.514;2023-08-21T12:25:03;3.85;;;1.10;;
52180;SDS011;38158;53.338;6.514;2023-08-21T12:27:30;3.10;;;0.82;;
52180;SDS011;38158;53.338;6.514;2023-08-21T12:29:56;2.67;;;0.52;;
52180;SDS011;38158;53.338;6.514;2023-08-21T12:32:22;2.77;;;0.60;;
52180;SDS011;38158;53.338;6.514;2023-08-21T12:34:47;2.83;;;0.67;;
52180;SDS011;38158;53.338;6.514;2023-08-21T12:37:13;4.20;;;1.03;;
52180;SDS011;38158;53.338;6.514;2023-08-21T12:39:39;2.42;;;0.73;;
52180;SDS011;38158;53.338;6.514;2023-08-21T12:42:05;4.70;;;0.90;;
52180;SDS011;38158;53.338;6.514;2023-08-21T12:44:32;6.25;;;0.88;;
52180;SDS011;38158;53.338;6.514;2023-08-21T12:47:00;4.43;;;0.88;;
52180;SDS011;38158;53.338;6.514;2023-08-21T12:49:25;4.10;;;1.17;;
52180;SDS011;38158;53.338;6.514;2023-08-21T12:51:51;4.67;;;0.60;;
52180;SDS011;38158;53.338;6.514;2023-08-21T12:54:17;3.10;;;0.60;;
52180;SDS011;38158;53.338;6.514;2023-08-21T12:56:43;2.13;;;0.87;;
52180;SDS011;38158;53.338;6.514;2023-08-21T12:59:09;4.53;;;0.80;;
52180;SDS011;38158;53.338;6.514;2023-08-21T13:01:34;3.60;;;0.70;;
52180;SDS011;38158;53.338;6.514;2023-08-21T13:04:02;2.90;;;0.60;;
52180;SDS011;38158;53.338;6.514;2023-08-21T13:06:28;4.60;;;1.00;;
52180;SDS011;38158;53.338;6.514;2023-08-21T13:08:54;3.43;;;0.97;;
52180;SDS011;38158;53.338;6.514;2023-08-21T13:11:19;3.80;;;0.83;;
52180;SDS011;38158;53.338;6.514;2023-08-21T13:13:45;8.73;;;0.80;;
52180;SDS011;38158;53.338;6.514;2023-08-21T13:16:10;2.60;;;0.50;;
52180;SDS011;38158;53.338;6.514;2023-08-21T13:18:36;3.40;;;0.63;;
52180;SDS011;38158;53.338;6.514;2023-08-21T13:21:02;6.17;;;1.47;;
52180;SDS011;38158;53.338;6.514;2023-08-21T13:23:28;6.70;;;1.40;;
52180;SDS011;38158;53.338;6.514;2023-08-21T13:28:22;8.90;;;1.90;;
52180;SDS011;38158;53.338;6.514;2023-08-21T13:30:48;5.27;;;1.30;;
52180;SDS011;38158;53.338;6.514;2023-08-21T13:33:14;6.57;;;1.60;;
52180;SDS011;38158;53.338;6.514;2023-08-21T13:35:40;6.50;;;1.70;;
52180;SDS011;38158;53.338;6.514;2023-08-21T13:38:06;4.27;;;1.17;;
52180;SDS011;38158;53.338;6.514;2023-08-21T13:40:33;5.65;;;1.70;;
52180;SDS011;38158;53.338;6.514;2023-08-21T13:42:59;5.70;;;1.53;;
52180;SDS011;38158;53.338;6.514;2023-08-21T13:45:25;3.17;;;0.60;;
52180;SDS011;38158;53.338;6.514;2023-08-21T13:47:50;6.00;;;0.90;;
52180;SDS011;38158;53.338;6.514;2023-08-21T13:52:44;7.35;;;2.00;;
52180;SDS011;38158;53.338;6.514;2023-08-21T13:55:11;4.13;;;1.45;;
52180;SDS011;38158;53.338;6.514;2023-08-21T14:00:05;4.60;;;1.30;;
52180;SDS011;38158;53.338;6.514;2023-08-21T14:02:33;6.50;;;1.52;;
52180;SDS011;38158;53.338;6.514;2023-08-21T14:04:59;4.55;;;0.80;;
52180;SDS011;38158;53.338;6.514;2023-08-21T14:07:26;3.45;;;0.93;;
52180;SDS011;38158;53.338;6.514;2023-08-21T14:09:51;4.70;;;1.10;;
52180;SDS011;38158;53.338;6.514;2023-08-21T14:12:17;3.87;;;0.97;;
52180;SDS011;38158;53.338;6.514;2023-08-21T14:14:43;4.30;;;1.15;;
52180;SDS011;38158;53.338;6.514;2023-08-21T14:17:09;3.50;;;0.80;;
52180;SDS011;38158;53.338;6.514;2023-08-21T14:19:35;3.23;;;0.93;;
52180;SDS011;38158;53.338;6.514;2023-08-21T14:22:01;2.40;;;0.80;;
52180;SDS011;38158;53.338;6.514;2023-08-21T14:26:53;3.28;;;0.80;;
52180;SDS011;38158;53.338;6.514;2023-08-21T14:29:19;3.87;;;0.80;;
52180;SDS011;38158;53.338;6.514;2023-08-21T14:31:45;2.77;;;0.73;;
52180;SDS011;38158;53.338;6.514;2023-08-21T14:34:12;3.67;;;0.95;;
52180;SDS011;38158;53.338;6.514;2023-08-21T14:36:38;3.88;;;0.90;;
52180;SDS011;38158;53.338;6.514;2023-08-21T14:39:03;2.43;;;0.70;;
52180;SDS011;38158;53.338;6.514;2023-08-21T14:41:29;3.43;;;0.83;;
52180;SDS011;38158;53.338;6.514;2023-08-21T14:43:55;3.77;;;0.90;;
52180;SDS011;38158;53.338;6.514;2023-08-21T14:46:21;4.00;;;1.10;;
52180;SDS011;38158;53.338;6.514;2023-08-21T14:48:46;2.07;;;0.70;;
52180;SDS011;38158;53.338;6.514;2023-08-21T14:51:12;4.20;;;1.00;;
52180;SDS011;38158;53.338;6.514;2023-08-21T14:53:38;4.10;;;1.00;;
52180;SDS011;38158;53.338;6.514;2023-08-21T14:56:03;3.37;;;0.60;;
52180;SDS011;38158;53.338;6.514;2023-08-21T14:58:29;3.60;;;0.67;;
52180;SDS011;38158;53.338;6.514;2023-08-21T15:00:55;2.43;;;0.60;;
52180;SDS011;38158;53.338;6.514;2023-08-21T15:03:24;3.53;;;0.88;;
52180;SDS011;38158;53.338;6.514;2023-08-21T15:05:49;3.50;;;0.70;;
52180;SDS011;38158;53.338;6.514;2023-08-21T15:08:16;4.95;;;1.25;;
52180;SDS011;38158;53.338;6.514;2023-08-21T15:10:42;4.82;;;1.00;;
52180;SDS011;38158;53.338;6.514;2023-08-21T15:13:08;3.73;;;0.63;;
52180;SDS011;38158;53.338;6.514;2023-08-21T15:15:33;2.70;;;0.80;;
52180;SDS011;38158;53.338;6.514;2023-08-21T15:17:59;4.80;;;1.17;;
52180;SDS011;38158;53.338;6.514;2023-08-21T15:20:25;4.87;;;0.80;;
52180;SDS011;38158;53.338;6.514;2023-08-21T15:22:50;4.07;;;0.90;;
52180;SDS011;38158;53.338;6.514;2023-08-21T15:25:16;5.40;;;1.00;;